sensor_id;sensor_type;location;lat;lon;timestamp;temperature;humidity
40059;SHT31;25763;49.972;8.568;2023-01-29T00:01:59;1.36;70.01
40059;SHT31;25763;49.972;8.568;2023-01-29T00:04:25;1.46;70.73
40059;SHT31;25763;49.972;8.568;2023-01-29T00:06:50;1.36;68.21
40059;SHT31;25763;49.972;8.568;2023-01-29T00:09:17;1.35;68.50
40059;SHT31;25763;49.972;8.568;2023-01-29T00:11:42;1.28;68.37
40059;SHT31;25763;49.972;8.568;2023-01-29T00:14:08;1.18;68.73
40059;SHT31;25763;49.972;8.568;2023-01-29T00:16:33;1.27;69.05
40059;SHT31;25763;49.972;8.568;2023-01-29T00:19:00;1.38;70.04
40059;SHT31;25763;49.972;8.568;2023-01-29T00:21:25;1.38;69.30
40059;SHT31;25763;49.972;8.568;2023-01-29T00:23:53;1.45;70.24
40059;SHT31;25763;49.972;8.568;2023-01-29T00:26:19;1.48;69.84
40059;SHT31;25763;49.972;8.568;2023-01-29T00:28:45;1.51;69.58
40059;SHT31;25763;49.972;8.568;2023-01-29T00:31:13;1.41;68.77
40059;SHT31;25763;49.972;8.568;2023-01-29T00:33:38;1.52;69.84
40059;SHT31;25763;49.972;8.568;2023-01-29T00:36:05;1.62;70.70
40059;SHT31;25763;49.972;8.568;2023-01-29T00:38:32;1.70;70.47
40059;SHT31;25763;49.972;8.568;2023-01-29T00:41:05;1.70;70.73
40059;SHT31;25763;49.972;8.568;2023-01-29T00:43:49;1.63;69.52
40059;SHT31;25763;49.972;8.568;2023-01-29T00:46:32;1.66;70.53
40059;SHT31;25763;49.972;8.568;2023-01-29T00:48:58;1.64;70.52
40059;SHT31;25763;49.972;8.568;2023-01-29T00:51:23;1.70;70.66
40059;SHT31;25763;49.972;8.568;2023-01-29T00:53:48;1.71;70.33
40059;SHT31;25763;49.972;8.568;2023-01-29T00:56:14;1.55;69.15
40059;SHT31;25763;49.972;8.568;2023-01-29T00:58:39;1.58;69.52
40059;SHT31;25763;49.972;8.568;2023-01-29T01:01:04;1.48;68.33
40059;SHT31;25763;49.972;8.568;2023-01-29T01:03:30;1.43;67.65
40059;SHT31;25763;49.972;8.568;2023-01-29T01:06:07;1.55;69.45
40059;SHT31;25763;49.972;8.568;2023-01-29T01:08:33;1.64;70.49
40059;SHT31;25763;49.972;8.568;2023-01-29T01:11:17;1.64;70.59
40059;SHT31;25763;49.972;8.568;2023-01-29T01:13:43;1.71;70.92
40059;SHT31;25763;49.972;8.568;2023-01-29T01:16:13;1.73;70.42
40059;SHT31;25763;49.972;8.568;2023-01-29T01:18:40;1.73;70.48
40059;SHT31;25763;49.972;8.568;2023-01-29T01:21:05;1.67;70.10
40059;SHT31;25763;49.972;8.568;2023-01-29T01:23:31;1.70;70.50
40059;SHT31;25763;49.972;8.568;2023-01-29T01:25:56;1.73;70.56
40059;SHT31;25763;49.972;8.568;2023-01-29T01:28:22;1.77;70.53
40059;SHT31;25763;49.972;8.568;2023-01-29T01:30:47;1.74;70.64
40059;SHT31;25763;49.972;8.568;2023-01-29T01:33:12;1.73;70.70
40059;SHT31;25763;49.972;8.568;2023-01-29T01:35:38;1.67;70.10
40059;SHT31;25763;49.972;8.568;2023-01-29T01:38:04;1.66;69.75
40059;SHT31;25763;49.972;8.568;2023-01-29T01:40:29;1.67;69.81
40059;SHT31;25763;49.972;8.568;2023-01-29T01:42:57;1.59;68.96
40059;SHT31;25763;49.972;8.568;2023-01-29T01:45:33;1.62;68.91
40059;SHT31;25763;49.972;8.568;2023-01-29T01:48:10;1.63;69.86
40059;SHT31;25763;49.972;8.568;2023-01-29T01:51:04;1.59;69.75
40059;SHT31;25763;49.972;8.568;2023-01-29T01:53:36;1.53;69.66
40059;SHT31;25763;49.972;8.568;2023-01-29T01:56:09;1.52;70.19
40059;SHT31;25763;49.972;8.568;2023-01-29T01:58:39;1.48;69.94
40059;SHT31;25763;49.972;8.568;2023-01-29T02:01:06;1.42;70.02
40059;SHT31;25763;49.972;8.568;2023-01-29T02:03:36;1.42;70.40
40059;SHT31;25763;49.972;8.568;2023-01-29T02:06:24;1.42;70.84
40059;SHT31;25763;49.972;8.568;2023-01-29T02:09:14;1.38;70.24
40059;SHT31;25763;49.972;8.568;2023-01-29T02:12:02;1.39;70.58
40059;SHT31;25763;49.972;8.568;2023-01-29T02:14:28;1.38;70.75
40059;SHT31;25763;49.972;8.568;2023-01-29T02:16:58;1.25;68.02
40059;SHT31;25763;49.972;8.568;2023-01-29T02:19:44;1.32;69.88
40059;SHT31;25763;49.972;8.568;2023-01-29T02:30:33;1.23;71.23
40059;SHT31;25763;49.972;8.568;2023-01-29T02:39:07;1.16;71.75
40059;SHT31;25763;49.972;8.568;2023-01-29T02:41:45;1.18;72.07
40059;SHT31;25763;49.972;8.568;2023-01-29T02:44:24;1.21;72.14
40059;SHT31;25763;49.972;8.568;2023-01-29T02:46:56;1.20;72.31
40059;SHT31;25763;49.972;8.568;2023-01-29T02:49:48;1.18;72.39
40059;SHT31;25763;49.972;8.568;2023-01-29T02:52:27;1.21;72.23
40059;SHT31;25763;49.972;8.568;2023-01-29T02:55:09;1.21;72.23
40059;SHT31;25763;49.972;8.568;2023-01-29T02:57:39;1.20;72.25
40059;SHT31;25763;49.972;8.568;2023-01-29T03:00:12;1.21;72.17
40059;SHT31;25763;49.972;8.568;2023-01-29T03:02:57;1.24;72.30
40059;SHT31;25763;49.972;8.568;2023-01-29T03:05:43;1.23;72.35
40059;SHT31;25763;49.972;8.568;2023-01-29T03:08:14;1.25;72.35
40059;SHT31;25763;49.972;8.568;2023-01-29T03:10:53;1.27;72.19
40059;SHT31;25763;49.972;8.568;2023-01-29T03:13:28;1.24;71.67
40059;SHT31;25763;49.972;8.568;2023-01-29T03:16:09;1.27;71.62
40059;SHT31;25763;49.972;8.568;2023-01-29T03:18:45;1.27;71.98
40059;SHT31;25763;49.972;8.568;2023-01-29T03:21:23;1.24;71.92
40059;SHT31;25763;49.972;8.568;2023-01-29T03:24:10;1.25;72.05
40059;SHT31;25763;49.972;8.568;2023-01-29T03:26:57;1.24;71.90
40059;SHT31;25763;49.972;8.568;2023-01-29T03:29:44;1.23;71.76
40059;SHT31;25763;49.972;8.568;2023-01-29T03:32:30;1.21;72.05
40059;SHT31;25763;49.972;8.568;2023-01-29T03:34:59;1.23;72.05
40059;SHT31;25763;49.972;8.568;2023-01-29T03:37:37;1.21;72.10
40059;SHT31;25763;49.972;8.568;2023-01-29T03:40:05;1.18;71.96
40059;SHT31;25763;49.972;8.568;2023-01-29T03:45:03;1.25;71.32
40059;SHT31;25763;49.972;8.568;2023-01-29T03:50:11;1.18;70.12
40059;SHT31;25763;49.972;8.568;2023-01-29T03:52:50;1.04;69.03
40059;SHT31;25763;49.972;8.568;2023-01-29T03:58:07;1.01;69.67
40059;SHT31;25763;49.972;8.568;2023-01-29T04:00:39;1.05;70.39
40059;SHT31;25763;49.972;8.568;2023-01-29T04:03:33;1.05;71.12
40059;SHT31;25763;49.972;8.568;2023-01-29T04:06:14;1.04;70.80
40059;SHT31;25763;49.972;8.568;2023-01-29T04:08:55;1.03;71.29
40059;SHT31;25763;49.972;8.568;2023-01-29T04:11:23;1.05;71.56
40059;SHT31;25763;49.972;8.568;2023-01-29T04:13:50;1.07;71.65
40059;SHT31;25763;49.972;8.568;2023-01-29T04:16:26;1.05;71.83
40059;SHT31;25763;49.972;8.568;2023-01-29T04:18:52;1.03;72.05
40059;SHT31;25763;49.972;8.568;2023-01-29T04:21:19;1.03;72.21
40059;SHT31;25763;49.972;8.568;2023-01-29T04:23:44;1.01;72.32
40059;SHT31;25763;49.972;8.568;2023-01-29T04:31:52;0.89;72.81
40059;SHT31;25763;49.972;8.568;2023-01-29T04:34:26;0.82;73.01
40059;SHT31;25763;49.972;8.568;2023-01-29T04:40:00;0.70;73.25
40059;SHT31;25763;49.972;8.568;2023-01-29T04:42:52;0.68;72.93
40059;SHT31;25763;49.972;8.568;2023-01-29T04:45:26;0.65;73.48
40059;SHT31;25763;49.972;8.568;2023-01-29T04:47:56;0.62;73.89
40059;SHT31;25763;49.972;8.568;2023-01-29T04:50:35;0.55;74.00
40059;SHT31;25763;49.972;8.568;2023-01-29T04:55:49;0.64;74.44
40059;SHT31;25763;49.972;8.568;2023-01-29T04:58:25;0.64;74.35
40059;SHT31;25763;49.972;8.568;2023-01-29T05:00:53;0.64;74.52
40059;SHT31;25763;49.972;8.568;2023-01-29T05:03:22;0.64;74.44
40059;SHT31;25763;49.972;8.568;2023-01-29T05:05:50;0.66;74.38
40059;SHT31;25763;49.972;8.568;2023-01-29T05:08:20;0.65;74.25
40059;SHT31;25763;49.972;8.568;2023-01-29T05:10:48;0.66;74.25
40059;SHT31;25763;49.972;8.568;2023-01-29T05:13:14;0.65;74.36
40059;SHT31;25763;49.972;8.568;2023-01-29T05:15:50;0.61;74.32
40059;SHT31;25763;49.972;8.568;2023-01-29T05:18:18;0.64;74.55
40059;SHT31;25763;49.972;8.568;2023-01-29T05:20:43;0.62;74.60
40059;SHT31;25763;49.972;8.568;2023-01-29T05:23:18;0.57;74.11
40059;SHT31;25763;49.972;8.568;2023-01-29T05:25:45;0.54;74.13
40059;SHT31;25763;49.972;8.568;2023-01-29T05:28:12;0.52;74.38
40059;SHT31;25763;49.972;8.568;2023-01-29T05:30:45;0.57;74.73
40059;SHT31;25763;49.972;8.568;2023-01-29T05:33:19;0.55;74.75
40059;SHT31;25763;49.972;8.568;2023-01-29T05:35:45;0.55;74.93
40059;SHT31;25763;49.972;8.568;2023-01-29T05:38:11;0.49;74.55
40059;SHT31;25763;49.972;8.568;2023-01-29T05:40:37;0.52;74.89
40059;SHT31;25763;49.972;8.568;2023-01-29T05:43:03;0.34;74.53
40059;SHT31;25763;49.972;8.568;2023-01-29T05:45:29;0.22;74.44
40059;SHT31;25763;49.972;8.568;2023-01-29T05:47:56;0.29;74.47
40059;SHT31;25763;49.972;8.568;2023-01-29T05:50:22;0.37;74.92
40059;SHT31;25763;49.972;8.568;2023-01-29T05:52:47;0.41;74.80
40059;SHT31;25763;49.972;8.568;2023-01-29T05:55:13;0.37;74.40
40059;SHT31;25763;49.972;8.568;2023-01-29T05:57:39;0.40;75.00
40059;SHT31;25763;49.972;8.568;2023-01-29T06:00:05;0.45;75.20
40059;SHT31;25763;49.972;8.568;2023-01-29T06:02:31;0.44;74.84
40059;SHT31;25763;49.972;8.568;2023-01-29T06:04:57;0.45;74.44
40059;SHT31;25763;49.972;8.568;2023-01-29T06:07:22;0.33;73.39
40059;SHT31;25763;49.972;8.568;2023-01-29T06:09:47;0.26;73.15
40059;SHT31;25763;49.972;8.568;2023-01-29T06:12:13;0.17;72.72
40059;SHT31;25763;49.972;8.568;2023-01-29T06:14:38;0.19;72.42
40059;SHT31;25763;49.972;8.568;2023-01-29T06:17:03;0.27;73.14
40059;SHT31;25763;49.972;8.568;2023-01-29T06:19:29;0.27;73.90
40059;SHT31;25763;49.972;8.568;2023-01-29T06:21:54;0.30;74.23
40059;SHT31;25763;49.972;8.568;2023-01-29T06:24:20;0.29;74.75
40059;SHT31;25763;49.972;8.568;2023-01-29T06:26:45;0.31;75.24
40059;SHT31;25763;49.972;8.568;2023-01-29T06:29:10;0.37;75.47
40059;SHT31;25763;49.972;8.568;2023-01-29T06:31:36;0.42;75.62
40059;SHT31;25763;49.972;8.568;2023-01-29T06:34:01;0.44;75.59
40059;SHT31;25763;49.972;8.568;2023-01-29T06:36:27;0.42;75.65
40059;SHT31;25763;49.972;8.568;2023-01-29T06:38:53;0.42;75.57
40059;SHT31;25763;49.972;8.568;2023-01-29T06:41:18;0.42;75.65
40059;SHT31;25763;49.972;8.568;2023-01-29T06:43:46;0.44;75.62
40059;SHT31;25763;49.972;8.568;2023-01-29T06:46:12;0.48;75.50
40059;SHT31;25763;49.972;8.568;2023-01-29T06:48:38;0.45;75.27
40059;SHT31;25763;49.972;8.568;2023-01-29T06:51:06;0.44;75.10
40059;SHT31;25763;49.972;8.568;2023-01-29T06:53:33;0.42;75.05
40059;SHT31;25763;49.972;8.568;2023-01-29T06:55:58;0.37;74.85
40059;SHT31;25763;49.972;8.568;2023-01-29T06:58:24;0.41;75.16
40059;SHT31;25763;49.972;8.568;2023-01-29T07:00:50;0.45;75.57
40059;SHT31;25763;49.972;8.568;2023-01-29T07:03:15;0.45;75.54
40059;SHT31;25763;49.972;8.568;2023-01-29T07:05:40;0.47;75.25
40059;SHT31;25763;49.972;8.568;2023-01-29T07:08:06;0.45;75.10
40059;SHT31;25763;49.972;8.568;2023-01-29T07:10:32;0.44;75.69
40059;SHT31;25763;49.972;8.568;2023-01-29T07:12:58;0.38;75.73
40059;SHT31;25763;49.972;8.568;2023-01-29T07:15:23;0.41;75.90
40059;SHT31;25763;49.972;8.568;2023-01-29T07:18:02;0.45;76.14
40059;SHT31;25763;49.972;8.568;2023-01-29T07:20:30;0.47;75.93
40059;SHT31;25763;49.972;8.568;2023-01-29T07:22:56;0.49;75.74
40059;SHT31;25763;49.972;8.568;2023-01-29T07:25:22;0.42;76.01
40059;SHT31;25763;49.972;8.568;2023-01-29T07:27:48;0.49;75.78
40059;SHT31;25763;49.972;8.568;2023-01-29T07:30:14;0.37;75.44
40059;SHT31;25763;49.972;8.568;2023-01-29T07:32:40;0.27;75.14
40059;SHT31;25763;49.972;8.568;2023-01-29T07:35:06;0.41;75.23
40059;SHT31;25763;49.972;8.568;2023-01-29T07:37:32;0.44;75.37
40059;SHT31;25763;49.972;8.568;2023-01-29T07:39:57;0.44;75.32
40059;SHT31;25763;49.972;8.568;2023-01-29T07:42:23;0.37;74.76
40059;SHT31;25763;49.972;8.568;2023-01-29T07:44:48;0.41;74.98
40059;SHT31;25763;49.972;8.568;2023-01-29T07:47:13;0.45;75.06
40059;SHT31;25763;49.972;8.568;2023-01-29T07:49:39;0.52;75.17
40059;SHT31;25763;49.972;8.568;2023-01-29T07:52:04;0.61;75.20
40059;SHT31;25763;49.972;8.568;2023-01-29T07:54:30;0.62;75.23
40059;SHT31;25763;49.972;8.568;2023-01-29T07:56:55;0.68;75.26
40059;SHT31;25763;49.972;8.568;2023-01-29T07:59:20;0.70;75.16
40059;SHT31;25763;49.972;8.568;2023-01-29T08:01:46;0.58;74.80
40059;SHT31;25763;49.972;8.568;2023-01-29T08:04:11;0.59;74.77
40059;SHT31;25763;49.972;8.568;2023-01-29T08:06:36;0.66;74.62
40059;SHT31;25763;49.972;8.568;2023-01-29T08:09:02;0.80;74.67
40059;SHT31;25763;49.972;8.568;2023-01-29T08:11:27;0.87;74.70
40059;SHT31;25763;49.972;8.568;2023-01-29T08:13:53;0.92;74.71
40059;SHT31;25763;49.972;8.568;2023-01-29T08:16:19;0.92;74.28
40059;SHT31;25763;49.972;8.568;2023-01-29T08:18:44;0.99;74.37
40059;SHT31;25763;49.972;8.568;2023-01-29T08:21:12;1.07;74.17
40059;SHT31;25763;49.972;8.568;2023-01-29T08:23:37;1.11;74.17
40059;SHT31;25763;49.972;8.568;2023-01-29T08:26:03;1.20;74.01
40059;SHT31;25763;49.972;8.568;2023-01-29T08:28:29;1.23;74.17
40059;SHT31;25763;49.972;8.568;2023-01-29T08:30:54;1.28;73.98
40059;SHT31;25763;49.972;8.568;2023-01-29T08:33:20;1.25;73.94
40059;SHT31;25763;49.972;8.568;2023-01-29T08:35:49;1.32;73.59
40059;SHT31;25763;49.972;8.568;2023-01-29T08:38:15;1.46;73.54
40059;SHT31;25763;49.972;8.568;2023-01-29T08:40:41;1.53;72.67
40059;SHT31;25763;49.972;8.568;2023-01-29T08:43:07;1.63;72.14
40059;SHT31;25763;49.972;8.568;2023-01-29T08:45:34;1.62;71.23
40059;SHT31;25763;49.972;8.568;2023-01-29T08:47:59;1.66;71.44
40059;SHT31;25763;49.972;8.568;2023-01-29T08:50:25;1.80;71.74
40059;SHT31;25763;49.972;8.568;2023-01-29T08:52:50;1.88;70.81
40059;SHT31;25763;49.972;8.568;2023-01-29T08:55:16;1.83;70.52
40059;SHT31;25763;49.972;8.568;2023-01-29T08:57:41;1.60;69.91
40059;SHT31;25763;49.972;8.568;2023-01-29T09:00:07;1.42;69.83
40059;SHT31;25763;49.972;8.568;2023-01-29T09:02:36;1.39;70.53
40059;SHT31;25763;49.972;8.568;2023-01-29T09:05:02;1.51;70.70
40059;SHT31;25763;49.972;8.568;2023-01-29T09:07:28;1.51;70.67
40059;SHT31;25763;49.972;8.568;2023-01-29T09:09:53;1.31;70.27
40059;SHT31;25763;49.972;8.568;2023-01-29T09:12:19;1.24;70.28
40059;SHT31;25763;49.972;8.568;2023-01-29T09:14:44;1.31;70.67
40059;SHT31;25763;49.972;8.568;2023-01-29T09:17:10;1.23;70.51
40059;SHT31;25763;49.972;8.568;2023-01-29T09:19:35;1.34;70.63
40059;SHT31;25763;49.972;8.568;2023-01-29T09:22:00;1.24;69.91
40059;SHT31;25763;49.972;8.568;2023-01-29T09:24:26;1.32;70.42
40059;SHT31;25763;49.972;8.568;2023-01-29T09:26:51;1.30;70.10
40059;SHT31;25763;49.972;8.568;2023-01-29T09:29:16;1.27;70.20
40059;SHT31;25763;49.972;8.568;2023-01-29T09:31:42;1.25;70.09
40059;SHT31;25763;49.972;8.568;2023-01-29T09:34:07;1.41;70.31
40059;SHT31;25763;49.972;8.568;2023-01-29T09:36:32;1.45;70.32
40059;SHT31;25763;49.972;8.568;2023-01-29T09:38:58;1.49;69.86
40059;SHT31;25763;49.972;8.568;2023-01-29T09:41:31;1.62;70.18
40059;SHT31;25763;49.972;8.568;2023-01-29T09:44:02;1.66;69.83
40059;SHT31;25763;49.972;8.568;2023-01-29T09:49:06;1.49;69.24
40059;SHT31;25763;49.972;8.568;2023-01-29T09:51:39;1.51;69.49
40059;SHT31;25763;49.972;8.568;2023-01-29T09:54:18;1.38;69.17
40059;SHT31;25763;49.972;8.568;2023-01-29T09:56:47;1.39;69.28
40059;SHT31;25763;49.972;8.568;2023-01-29T09:59:16;1.49;69.64
40059;SHT31;25763;49.972;8.568;2023-01-29T10:02:08;1.52;69.50
40059;SHT31;25763;49.972;8.568;2023-01-29T10:05:12;1.62;69.69
40059;SHT31;25763;49.972;8.568;2023-01-29T10:08:07;1.70;69.59
40059;SHT31;25763;49.972;8.568;2023-01-29T10:10:49;1.41;68.70
40059;SHT31;25763;49.972;8.568;2023-01-29T10:24:45;1.52;69.32
40059;SHT31;25763;49.972;8.568;2023-01-29T10:27:15;1.62;69.05
40059;SHT31;25763;49.972;8.568;2023-01-29T10:29:42;1.94;69.37
40059;SHT31;25763;49.972;8.568;2023-01-29T10:32:13;1.93;67.93
40059;SHT31;25763;49.972;8.568;2023-01-29T10:35:01;1.83;67.97
40059;SHT31;25763;49.972;8.568;2023-01-29T10:37:39;1.74;67.65
40059;SHT31;25763;49.972;8.568;2023-01-29T10:40:33;1.67;67.95
40059;SHT31;25763;49.972;8.568;2023-01-29T10:43:22;1.66;67.99
40059;SHT31;25763;49.972;8.568;2023-01-29T10:46:05;1.77;68.13
40059;SHT31;25763;49.972;8.568;2023-01-29T10:49:05;1.59;68.36
40059;SHT31;25763;49.972;8.568;2023-01-29T10:51:58;1.56;68.30
40059;SHT31;25763;49.972;8.568;2023-01-29T10:54:53;1.64;68.20
40059;SHT31;25763;49.972;8.568;2023-01-29T11:02:18;1.87;67.81
40059;SHT31;25763;49.972;8.568;2023-01-29T11:04:45;2.08;67.52
40059;SHT31;25763;49.972;8.568;2023-01-29T11:07:12;2.16;67.01
40059;SHT31;25763;49.972;8.568;2023-01-29T11:09:46;1.97;66.39
40059;SHT31;25763;49.972;8.568;2023-01-29T11:12:17;2.11;66.76
40059;SHT31;25763;49.972;8.568;2023-01-29T11:15:03;1.87;66.70
40059;SHT31;25763;49.972;8.568;2023-01-29T11:17:29;1.74;67.22
40059;SHT31;25763;49.972;8.568;2023-01-29T11:19:54;1.64;67.77
40059;SHT31;25763;49.972;8.568;2023-01-29T11:22:25;1.84;67.67
40059;SHT31;25763;49.972;8.568;2023-01-29T11:25:15;2.06;67.23
40059;SHT31;25763;49.972;8.568;2023-01-29T11:27:47;2.28;66.94
40059;SHT31;25763;49.972;8.568;2023-01-29T11:30:28;2.32;66.47
40059;SHT31;25763;49.972;8.568;2023-01-29T11:35:24;1.91;66.38
40059;SHT31;25763;49.972;8.568;2023-01-29T11:37:49;1.69;66.90
40059;SHT31;25763;49.972;8.568;2023-01-29T11:42:47;2.21;67.41
40059;SHT31;25763;49.972;8.568;2023-01-29T11:45:33;2.01;66.07
40059;SHT31;25763;49.972;8.568;2023-01-29T11:48:02;2.23;67.05
40059;SHT31;25763;49.972;8.568;2023-01-29T11:50:30;2.28;66.36
40059;SHT31;25763;49.972;8.568;2023-01-29T11:52:58;2.05;66.25
40059;SHT31;25763;49.972;8.568;2023-01-29T11:55:27;1.93;66.69
40059;SHT31;25763;49.972;8.568;2023-01-29T11:58:12;2.02;66.34
40059;SHT31;25763;49.972;8.568;2023-01-29T12:00:41;2.30;66.67
40059;SHT31;25763;49.972;8.568;2023-01-29T12:03:19;2.08;66.29
40059;SHT31;25763;49.972;8.568;2023-01-29T12:08:35;1.90;66.50
40059;SHT31;25763;49.972;8.568;2023-01-29T12:11:22;1.77;66.77
40059;SHT31;25763;49.972;8.568;2023-01-29T12:13:53;1.81;67.02
40059;SHT31;25763;49.972;8.568;2023-01-29T12:19:16;2.12;66.64
40059;SHT31;25763;49.972;8.568;2023-01-29T12:21:51;2.19;66.46
40059;SHT31;25763;49.972;8.568;2023-01-29T12:26:56;2.40;66.24
40059;SHT31;25763;49.972;8.568;2023-01-29T12:29:48;2.15;66.42
40059;SHT31;25763;49.972;8.568;2023-01-29T12:35:34;2.16;66.08
40059;SHT31;25763;49.972;8.568;2023-01-29T12:38:08;2.16;66.47
40059;SHT31;25763;49.972;8.568;2023-01-29T12:40:51;1.97;66.99
40059;SHT31;25763;49.972;8.568;2023-01-29T12:43:29;1.98;67.04
40059;SHT31;25763;49.972;8.568;2023-01-29T12:45:55;2.18;67.09
40059;SHT31;25763;49.972;8.568;2023-01-29T12:48:43;2.04;66.77
40059;SHT31;25763;49.972;8.568;2023-01-29T12:51:24;2.21;67.05
40059;SHT31;25763;49.972;8.568;2023-01-29T12:54:06;2.32;66.79
40059;SHT31;25763;49.972;8.568;2023-01-29T12:56:36;2.39;66.52
40059;SHT31;25763;49.972;8.568;2023-01-29T12:59:25;2.33;66.34
40059;SHT31;25763;49.972;8.568;2023-01-29T13:01:55;2.35;66.58
40059;SHT31;25763;49.972;8.568;2023-01-29T13:04:37;2.39;66.04
40059;SHT31;25763;49.972;8.568;2023-01-29T13:07:11;2.26;65.98
40059;SHT31;25763;49.972;8.568;2023-01-29T13:09:41;2.18;66.41
40059;SHT31;25763;49.972;8.568;2023-01-29T13:12:17;2.26;66.36
40059;SHT31;25763;49.972;8.568;2023-01-29T13:14:48;2.30;66.46
40059;SHT31;25763;49.972;8.568;2023-01-29T13:17:42;2.32;66.74
40059;SHT31;25763;49.972;8.568;2023-01-29T13:20:16;2.50;66.56
40059;SHT31;25763;49.972;8.568;2023-01-29T13:22:43;2.52;66.22
40059;SHT31;25763;49.972;8.568;2023-01-29T13:25:18;2.28;66.06
40059;SHT31;25763;49.972;8.568;2023-01-29T13:27:44;2.47;66.60
40059;SHT31;25763;49.972;8.568;2023-01-29T13:30:29;2.50;66.42
40059;SHT31;25763;49.972;8.568;2023-01-29T13:32:57;2.30;66.33
40059;SHT31;25763;49.972;8.568;2023-01-29T13:35:39;2.19;66.15
40059;SHT31;25763;49.972;8.568;2023-01-29T13:38:24;2.04;66.89
40059;SHT31;25763;49.972;8.568;2023-01-29T13:40:53;1.99;67.28
40059;SHT31;25763;49.972;8.568;2023-01-29T13:43:21;2.22;67.60
40059;SHT31;25763;49.972;8.568;2023-01-29T13:45:48;2.18;66.74
40059;SHT31;25763;49.972;8.568;2023-01-29T13:48:29;2.28;66.75
40059;SHT31;25763;49.972;8.568;2023-01-29T13:51:00;2.45;66.66
40059;SHT31;25763;49.972;8.568;2023-01-29T13:53:29;2.40;66.33
40059;SHT31;25763;49.972;8.568;2023-01-29T13:59:00;2.52;65.93
40059;SHT31;25763;49.972;8.568;2023-01-29T14:04:27;2.57;66.37
40059;SHT31;25763;49.972;8.568;2023-01-29T14:06:56;2.63;65.86
40059;SHT31;25763;49.972;8.568;2023-01-29T14:17:14;2.80;65.70
40059;SHT31;25763;49.972;8.568;2023-01-29T14:19:48;2.78;65.38
40059;SHT31;25763;49.972;8.568;2023-01-29T14:22:26;2.64;65.65
40059;SHT31;25763;49.972;8.568;2023-01-29T14:24:55;2.56;66.34
40059;SHT31;25763;49.972;8.568;2023-01-29T14:27:23;2.65;66.54
40059;SHT31;25763;49.972;8.568;2023-01-29T14:29:58;2.60;65.85
40059;SHT31;25763;49.972;8.568;2023-01-29T14:32:24;2.65;66.35
40059;SHT31;25763;49.972;8.568;2023-01-29T14:37:23;2.84;66.17
40059;SHT31;25763;49.972;8.568;2023-01-29T14:40:14;2.93;66.15
40059;SHT31;25763;49.972;8.568;2023-01-29T14:43:02;2.80;65.67
40059;SHT31;25763;49.972;8.568;2023-01-29T14:45:30;2.88;65.90
40059;SHT31;25763;49.972;8.568;2023-01-29T14:47:57;2.89;65.59
40059;SHT31;25763;49.972;8.568;2023-01-29T14:55:38;3.20;65.11
40059;SHT31;25763;49.972;8.568;2023-01-29T14:58:05;3.75;62.91
40059;SHT31;25763;49.972;8.568;2023-01-29T15:00:36;3.75;62.21
40059;SHT31;25763;49.972;8.568;2023-01-29T15:03:12;3.48;63.19
40059;SHT31;25763;49.972;8.568;2023-01-29T15:05:39;2.92;64.24
40059;SHT31;25763;49.972;8.568;2023-01-29T15:08:14;2.84;65.15
40059;SHT31;25763;49.972;8.568;2023-01-29T15:10:45;2.60;65.76
40059;SHT31;25763;49.972;8.568;2023-01-29T15:13:20;2.39;66.19
40059;SHT31;25763;49.972;8.568;2023-01-29T15:15:55;2.37;66.47
40059;SHT31;25763;49.972;8.568;2023-01-29T15:18:38;2.39;66.71
40059;SHT31;25763;49.972;8.568;2023-01-29T15:23:37;2.19;67.12
40059;SHT31;25763;49.972;8.568;2023-01-29T15:26:05;2.25;67.20
40059;SHT31;25763;49.972;8.568;2023-01-29T15:28:33;2.13;67.56
40059;SHT31;25763;49.972;8.568;2023-01-29T15:31:00;2.06;67.84
40059;SHT31;25763;49.972;8.568;2023-01-29T15:33:30;1.93;68.04
40059;SHT31;25763;49.972;8.568;2023-01-29T15:35:58;1.88;68.35
40059;SHT31;25763;49.972;8.568;2023-01-29T15:38:24;1.84;68.78
40059;SHT31;25763;49.972;8.568;2023-01-29T15:41:02;1.77;69.08
40059;SHT31;25763;49.972;8.568;2023-01-29T15:43:30;1.70;69.34
40059;SHT31;25763;49.972;8.568;2023-01-29T15:46:01;1.74;69.45
40059;SHT31;25763;49.972;8.568;2023-01-29T15:48:36;1.70;69.61
40059;SHT31;25763;49.972;8.568;2023-01-29T15:51:05;1.66;69.94
40059;SHT31;25763;49.972;8.568;2023-01-29T15:53:58;1.56;70.05
40059;SHT31;25763;49.972;8.568;2023-01-29T15:56:31;1.52;70.41
40059;SHT31;25763;49.972;8.568;2023-01-29T15:58:59;1.51;70.42
40059;SHT31;25763;49.972;8.568;2023-01-29T16:01:27;1.49;70.77
40059;SHT31;25763;49.972;8.568;2023-01-29T16:03:53;1.46;70.62
40059;SHT31;25763;49.972;8.568;2023-01-29T16:06:20;1.45;70.66
40059;SHT31;25763;49.972;8.568;2023-01-29T16:08:49;1.43;70.99
40059;SHT31;25763;49.972;8.568;2023-01-29T16:11:16;1.41;71.09
40059;SHT31;25763;49.972;8.568;2023-01-29T16:13:44;1.31;71.26
40059;SHT31;25763;49.972;8.568;2023-01-29T16:18:41;1.25;71.86
40059;SHT31;25763;49.972;8.568;2023-01-29T16:21:13;1.21;72.10
40059;SHT31;25763;49.972;8.568;2023-01-29T16:23:44;1.18;72.24
40059;SHT31;25763;49.972;8.568;2023-01-29T16:26:32;1.17;72.28
40059;SHT31;25763;49.972;8.568;2023-01-29T16:29:04;1.08;72.46
40059;SHT31;25763;49.972;8.568;2023-01-29T16:31:31;1.03;72.76
40059;SHT31;25763;49.972;8.568;2023-01-29T16:33:58;1.04;72.81
40059;SHT31;25763;49.972;8.568;2023-01-29T16:36:25;1.01;72.94
40059;SHT31;25763;49.972;8.568;2023-01-29T16:38:56;0.93;73.04
40059;SHT31;25763;49.972;8.568;2023-01-29T16:43:54;1.00;73.43
40059;SHT31;25763;49.972;8.568;2023-01-29T16:48:50;0.96;73.26
40059;SHT31;25763;49.972;8.568;2023-01-29T16:51:28;0.80;73.77
40059;SHT31;25763;49.972;8.568;2023-01-29T16:53:59;0.76;73.97
40059;SHT31;25763;49.972;8.568;2023-01-29T16:56:27;0.77;73.64
40059;SHT31;25763;49.972;8.568;2023-01-29T16:58:54;0.73;73.87
40059;SHT31;25763;49.972;8.568;2023-01-29T17:01:22;0.75;74.11
40059;SHT31;25763;49.972;8.568;2023-01-29T17:03:58;0.75;74.21
40059;SHT31;25763;49.972;8.568;2023-01-29T17:06:25;0.70;74.17
40059;SHT31;25763;49.972;8.568;2023-01-29T17:08:51;0.68;74.36
40059;SHT31;25763;49.972;8.568;2023-01-29T17:11:38;0.66;74.48
40059;SHT31;25763;49.972;8.568;2023-01-29T17:14:05;0.66;74.60
40059;SHT31;25763;49.972;8.568;2023-01-29T17:16:34;0.66;74.66
40059;SHT31;25763;49.972;8.568;2023-01-29T17:19:00;0.68;74.82
40059;SHT31;25763;49.972;8.568;2023-01-29T17:21:28;0.62;74.97
40059;SHT31;25763;49.972;8.568;2023-01-29T17:23:53;0.64;75.00
40059;SHT31;25763;49.972;8.568;2023-01-29T17:26:21;0.62;75.00
40059;SHT31;25763;49.972;8.568;2023-01-29T17:28:50;0.57;74.92
40059;SHT31;25763;49.972;8.568;2023-01-29T17:31:15;0.55;74.92
40059;SHT31;25763;49.972;8.568;2023-01-29T17:33:42;0.51;75.09
40059;SHT31;25763;49.972;8.568;2023-01-29T17:36:13;0.51;75.25
40059;SHT31;25763;49.972;8.568;2023-01-29T17:38:39;0.48;75.46
40059;SHT31;25763;49.972;8.568;2023-01-29T17:41:11;0.48;75.31
40059;SHT31;25763;49.972;8.568;2023-01-29T17:43:38;0.41;75.49
40059;SHT31;25763;49.972;8.568;2023-01-29T17:46:03;0.40;75.35
40059;SHT31;25763;49.972;8.568;2023-01-29T17:48:29;0.38;75.53
40059;SHT31;25763;49.972;8.568;2023-01-29T17:50:56;0.36;75.58